Time;durP1;ratioP1;P1;durP2;ratioP2;P2;SDS_P1;SDS_P2;PMS_P1;PMS_P2;Temp;Humidity;BMP_temperature;BMP_pressure;BME280_temperature;BME280_humidity;BME280_pressure;Samples;Min_cycle;Max_cycle;Signal;HPM_P1;HPM_P2
2022/01/07 00:01:58;;;;;;;13.65;4.78;;;;;;;;;;5088480;28;20051;-59
2022/01/07 00:04:24;;;;;;;11.95;4.22;;;;;;;;;;5088228;28;20388;-59
2022/01/07 00:06:50;;;;;;;11.98;4.32;;;;;;;;;;5088288;28;20063;-60
2022/01/07 00:09:16;;;;;;;17.48;4.68;;;;;;;;;;5090411;28;20093;-60
2022/01/07 00:11:42;;;;;;;13.00;4.53;;;;;;;;;;5089541;28;20043;-60
2022/01/07 00:14:08;;;;;;;13.75;4.35;;;;;;;;;;5088531;28;20452;-60
2022/01/07 00:16:34;;;;;;;12.18;4.50;;;;;;;;;;5088503;28;20506;-59
2022/01/07 00:19:00;;;;;;;13.23;3.80;;;;;;;;;;5089814;28;20035;-60
2022/01/07 00:21:26;;;;;;;14.00;4.80;;;;;;;;;;5089415;28;20044;-58
2022/01/07 00:23:52;;;;;;;14.50;4.30;;;;;;;;;;5086010;28;20032;-60
2022/01/07 00:26:19;;;;;;;12.70;5.35;;;;;;;;;;5089779;28;20093;-62
2022/01/07 00:28:45;;;;;;;12.50;4.53;;;;;;;;;;5087771;28;20123;-62
2022/01/07 00:31:11;;;;;;;8.98;4.18;;;;;;;;;;5086100;28;20120;-60
2022/01/07 00:33:37;;;;;;;14.18;3.88;;;;;;;;;;5089025;28;20067;-62
2022/01/07 00:36:03;;;;;;;10.95;3.83;;;;;;;;;;5087082;28;20102;-59
2022/01/07 00:38:30;;;;;;;15.13;5.50;;;;;;;;;;5087732;28;20036;-61
2022/01/07 00:40:56;;;;;;;10.50;4.05;;;;;;;;;;5088393;28;20051;-60
2022/01/07 00:43:22;;;;;;;12.30;4.03;;;;;;;;;;5088666;28;20032;-61
2022/01/07 00:45:48;;;;;;;10.35;3.88;;;;;;;;;;5087933;28;20040;-60
2022/01/07 00:48:14;;;;;;;12.10;4.10;;;;;;;;;;5087121;28;20143;-61
2022/01/07 00:50:41;;;;;;;12.50;5.03;;;;;;;;;;5088443;28;20135;-59
2022/01/07 00:53:07;;;;;;;10.10;4.05;;;;;;;;;;5088698;28;20473;-60
2022/01/07 00:55:33;;;;;;;11.95;3.88;;;;;;;;;;5088284;28;20035;-61
2022/01/07 00:57:59;;;;;;;13.13;4.32;;;;;;;;;;5089306;28;20042;-61
2022/01/07 01:00:26;;;;;;;9.95;3.95;;;;;;;;;;5088384;28;20498;-60
2022/01/07 01:02:55;;;;;;;11.18;4.63;;;;;;;;;;5090507;28;20063;-60
2022/01/07 01:05:21;;;;;;;8.95;3.28;;;;;;;;;;5087738;28;20490;-61
2022/01/07 01:07:47;;;;;;;12.45;4.82;;;;;;;;;;5089165;28;20040;-59
2022/01/07 01:10:14;;;;;;;11.32;3.83;;;;;;;;;;5087928;28;20078;-61
2022/01/07 01:12:41;;;;;;;10.23;3.90;;;;;;;;;;5088541;28;20081;-60
2022/01/07 01:15:08;;;;;;;15.77;5.07;;;;;;;;;;5085843;28;20410;-61
2022/01/07 01:17:34;;;;;;;10.68;3.50;;;;;;;;;;5088307;28;20052;-60
2022/01/07 01:20:00;;;;;;;10.43;4.05;;;;;;;;;;5087819;28;20124;-62
2022/01/07 01:22:26;;;;;;;9.32;3.70;;;;;;;;;;5089361;28;20078;-59
2022/01/07 01:24:52;;;;;;;12.45;4.00;;;;;;;;;;5088524;28;20051;-60
2022/01/07 01:27:18;;;;;;;11.18;4.43;;;;;;;;;;5087545;28;20040;-59
2022/01/07 01:29:44;;;;;;;14.55;4.38;;;;;;;;;;5087673;28;20036;-60
2022/01/07 01:32:11;;;;;;;11.23;3.50;;;;;;;;;;5087126;28;20044;-60
2022/01/07 01:34:37;;;;;;;12.20;4.63;;;;;;;;;;5086949;28;20394;-60
2022/01/07 01:37:03;;;;;;;9.57;4.18;;;;;;;;;;5088976;28;20061;-58
2022/01/07 01:39:29;;;;;;;16.92;5.07;;;;;;;;;;5087562;28;20494;-59
2022/01/07 01:41:57;;;;;;;15.70;4.43;;;;;;;;;;5087490;28;20040;-60
2022/01/07 01:44:23;;;;;;;7.18;4.50;;;;;;;;;;5088114;28;20040;-59
2022/01/07 01:46:49;;;;;;;15.23;5.28;;;;;;;;;;5087271;28;20047;-59
2022/01/07 01:49:15;;;;;;;9.70;4.53;;;;;;;;;;5087982;28;20036;-60
2022/01/07 01:51:41;;;;;;;11.52;4.78;;;;;;;;;;5086809;28;20035;-60
2022/01/07 01:54:07;;;;;;;14.45;4.80;;;;;;;;;;5089116;28;20119;-61
2022/01/07 01:56:34;;;;;;;13.98;5.18;;;;;;;;;;5088896;28;20036;-60
2022/01/07 01:59:00;;;;;;;10.82;5.05;;;;;;;;;;5088076;28;20490;-60
2022/01/07 02:01:26;;;;;;;13.18;5.88;;;;;;;;;;5087320;28;20051;-59
2022/01/07 02:03:52;;;;;;;14.45;5.45;;;;;;;;;;5086273;28;20048;-59
2022/01/07 02:06:18;;;;;;;10.85;5.22;;;;;;;;;;5087619;28;20032;-60
2022/01/07 02:08:45;;;;;;;12.20;5.47;;;;;;;;;;5088720;28;20072;-60
2022/01/07 02:11:11;;;;;;;11.02;5.55;;;;;;;;;;5088637;28;20123;-61
2022/01/07 02:13:37;;;;;;;14.40;6.07;;;;;;;;;;5087233;28;20301;-60
2022/01/07 02:16:03;;;;;;;10.63;5.90;;;;;;;;;;5087072;28;20098;-60
2022/01/07 02:18:29;;;;;;;11.77;5.20;;;;;;;;;;5088001;28;20040;-61
2022/01/07 02:20:55;;;;;;;13.45;6.22;;;;;;;;;;5089852;28;20040;-59
2022/01/07 02:23:21;;;;;;;7.85;5.43;;;;;;;;;;5088813;28;20393;-59
2022/01/07 02:25:47;;;;;;;13.63;5.63;;;;;;;;;;5091984;28;20406;-59
2022/01/07 02:28:14;;;;;;;8.50;5.50;;;;;;;;;;5092171;28;20122;-58
2022/01/07 02:30:40;;;;;;;9.73;5.93;;;;;;;;;;5092016;28;20825;-60
2022/01/07 02:33:06;;;;;;;10.80;5.82;;;;;;;;;;5091713;28;20079;-59
2022/01/07 02:35:33;;;;;;;11.88;6.10;;;;;;;;;;5091947;28;20089;-59
2022/01/07 02:37:59;;;;;;;13.07;7.00;;;;;;;;;;5091298;28;20048;-60
2022/01/07 02:40:25;;;;;;;14.60;6.55;;;;;;;;;;5091588;28;20823;-60
2022/01/07 02:42:51;;;;;;;10.70;5.97;;;;;;;;;;5088993;28;20044;-59
2022/01/07 02:45:18;;;;;;;13.90;6.30;;;;;;;;;;5091929;28;20035;-60
2022/01/07 02:47:57;;;;;;;10.20;5.80;;;;;;;;;;5091412;28;20035;-58
2022/01/07 02:50:26;;;;;;;11.25;5.65;;;;;;;;;;5088787;28;20111;-60
2022/01/07 02:52:52;;;;;;;10.43;5.65;;;;;;;;;;5090556;28;20044;-60
2022/01/07 02:55:18;;;;;;;12.82;6.93;;;;;;;;;;5089295;28;20042;-60
2022/01/07 02:57:44;;;;;;;11.60;6.72;;;;;;;;;;5092227;28;20036;-60
2022/01/07 03:00:11;;;;;;;9.57;5.72;;;;;;;;;;5089905;28;20040;-61
2022/01/07 03:02:37;;;;;;;10.77;6.18;;;;;;;;;;5091419;28;20039;-61
2022/01/07 03:05:03;;;;;;;12.90;6.78;;;;;;;;;;5088940;28;20039;-59
2022/01/07 03:07:30;;;;;;;14.65;5.45;;;;;;;;;;5091114;28;20039;-59
2022/01/07 03:09:56;;;;;;;12.55;6.30;;;;;;;;;;5090785;28;20428;-60
2022/01/07 03:12:22;;;;;;;11.68;6.22;;;;;;;;;;5090804;28;20044;-61
2022/01/07 03:14:49;;;;;;;12.40;6.38;;;;;;;;;;5089519;28;20067;-60
2022/01/07 03:17:16;;;;;;;15.52;7.80;;;;;;;;;;5090989;28;20494;-61
2022/01/07 03:19:42;;;;;;;13.10;7.50;;;;;;;;;;5090815;28;20051;-59
2022/01/07 03:22:08;;;;;;;16.05;6.90;;;;;;;;;;5088888;28;20142;-60
2022/01/07 03:24:34;;;;;;;13.90;6.70;;;;;;;;;;5089139;28;20843;-59
2022/01/07 03:27:00;;;;;;;12.30;6.20;;;;;;;;;;5090680;28;20028;-60
2022/01/07 03:29:26;;;;;;;10.82;6.30;;;;;;;;;;5091382;28;20043;-61
2022/01/07 03:31:52;;;;;;;13.40;6.13;;;;;;;;;;5087854;28;20131;-59
2022/01/07 03:34:18;;;;;;;12.10;6.38;;;;;;;;;;5088981;28;20064;-60
2022/01/07 03:36:44;;;;;;;11.65;6.35;;;;;;;;;;5089614;28;20445;-60
2022/01/07 03:39:10;;;;;;;11.38;5.82;;;;;;;;;;5089380;28;20044;-59
2022/01/07 03:41:36;;;;;;;12.38;5.75;;;;;;;;;;5089996;28;20040;-61
2022/01/07 03:44:02;;;;;;;12.23;5.97;;;;;;;;;;5087051;28;20036;-58
2022/01/07 03:46:28;;;;;;;16.02;6.32;;;;;;;;;;5090126;28;20085;-60
2022/01/07 03:48:54;;;;;;;12.13;6.68;;;;;;;;;;5091101;28;20044;-61
2022/01/07 03:51:20;;;;;;;11.60;6.55;;;;;;;;;;5089542;28;20070;-61
2022/01/07 03:53:46;;;;;;;15.23;6.63;;;;;;;;;;5088349;28;20440;-61
2022/01/07 03:56:17;;;;;;;9.38;6.18;;;;;;;;;;5090060;28;20048;-61
2022/01/07 03:58:43;;;;;;;12.43;6.35;;;;;;;;;;5089213;28;20047;-59
2022/01/07 04:01:09;;;;;;;10.40;6.55;;;;;;;;;;5090233;28;20036;-60
2022/01/07 04:03:35;;;;;;;13.55;6.05;;;;;;;;;;5090329;28;20032;-60
2022/01/07 04:06:01;;;;;;;13.75;6.50;;;;;;;;;;5087532;28;20093;-59
2022/01/07 04:08:28;;;;;;;11.90;5.88;;;;;;;;;;5089379;28;20451;-59
2022/01/07 04:10:54;;;;;;;9.02;4.75;;;;;;;;;;5087561;28;20071;-62
2022/01/07 04:13:19;;;;;;;12.02;6.05;;;;;;;;;;5084418;28;20071;-60
2022/01/07 04:15:46;;;;;;;12.85;6.75;;;;;;;;;;5089900;28;20060;-60
2022/01/07 04:18:12;;;;;;;11.27;6.05;;;;;;;;;;5089222;28;20036;-61
2022/01/07 04:20:38;;;;;;;8.05;4.90;;;;;;;;;;5089263;28;20417;-60
2022/01/07 04:23:05;;;;;;;9.55;5.15;;;;;;;;;;5091068;28;20039;-61
2022/01/07 04:25:31;;;;;;;8.55;5.70;;;;;;;;;;5089295;28;20036;-60
2022/01/07 04:27:59;;;;;;;11.93;5.72;;;;;;;;;;5089517;28;20028;-59
2022/01/07 04:30:26;;;;;;;7.57;5.50;;;;;;;;;;5088945;28;20089;-58
2022/01/07 04:32:54;;;;;;;13.57;5.80;;;;;;;;;;5088479;28;20071;-59
2022/01/07 04:35:20;;;;;;;9.25;5.65;;;;;;;;;;5089083;28;20490;-60
2022/01/07 04:37:46;;;;;;;9.20;5.13;;;;;;;;;;5089833;28;20040;-60
2022/01/07 04:40:14;;;;;;;11.95;5.50;;;;;;;;;;5090138;28;20130;-60
2022/01/07 04:42:40;;;;;;;8.70;5.80;;;;;;;;;;5088961;28;20406;-59
2022/01/07 04:45:07;;;;;;;7.70;5.00;;;;;;;;;;5088390;28;20032;-62
2022/01/07 04:47:36;;;;;;;10.98;5.50;;;;;;;;;;5089482;28;20032;-61
2022/01/07 04:50:03;;;;;;;7.78;4.80;;;;;;;;;;5089094;28;20543;-59
2022/01/07 04:52:29;;;;;;;9.48;5.18;;;;;;;;;;5088081;28;20521;-59
2022/01/07 04:54:55;;;;;;;8.55;5.43;;;;;;;;;;5088662;28;20036;-59
2022/01/07 04:57:21;;;;;;;8.73;5.30;;;;;;;;;;5089103;28;20044;-60
2022/01/07 04:59:47;;;;;;;8.75;5.45;;;;;;;;;;5087392;28;20028;-61
2022/01/07 05:02:13;;;;;;;8.07;5.25;;;;;;;;;;5088452;28;20042;-60
2022/01/07 05:04:39;;;;;;;9.18;5.32;;;;;;;;;;5088514;28;20036;-60
2022/01/07 05:07:05;;;;;;;6.82;4.88;;;;;;;;;;5089499;28;20164;-60
2022/01/07 05:09:31;;;;;;;6.40;4.63;;;;;;;;;;5088998;28;20546;-60
2022/01/07 05:11:57;;;;;;;8.70;5.18;;;;;;;;;;5088711;28;20039;-60
2022/01/07 05:14:23;;;;;;;7.15;4.80;;;;;;;;;;5088760;28;20075;-59
2022/01/07 05:16:49;;;;;;;6.10;4.32;;;;;;;;;;5087375;28;20040;-59
2022/01/07 05:19:15;;;;;;;5.78;4.60;;;;;;;;;;5088301;28;20102;-61
2022/01/07 05:21:41;;;;;;;5.88;4.25;;;;;;;;;;5088175;28;20048;-60
2022/01/07 05:24:07;;;;;;;9.13;5.05;;;;;;;;;;5088907;28;20044;-61
2022/01/07 05:26:33;;;;;;;9.57;4.63;;;;;;;;;;5088280;28;20051;-60
2022/01/07 05:28:59;;;;;;;6.97;4.70;;;;;;;;;;5089214;28;20036;-61
2022/01/07 05:31:25;;;;;;;8.88;4.75;;;;;;;;;;5088474;28;20044;-59
2022/01/07 05:33:52;;;;;;;8.20;4.65;;;;;;;;;;5088329;28;20059;-61
2022/01/07 05:36:19;;;;;;;9.82;4.70;;;;;;;;;;5088602;28;20071;-60
2022/01/07 05:38:45;;;;;;;8.38;5.15;;;;;;;;;;5088659;28;20036;-60
2022/01/07 05:41:12;;;;;;;7.53;4.88;;;;;;;;;;5086797;28;20044;-59
2022/01/07 05:43:38;;;;;;;7.50;4.72;;;;;;;;;;5088578;28;20498;-60
2022/01/07 05:46:04;;;;;;;8.18;4.68;;;;;;;;;;5088999;28;20028;-61
2022/01/07 05:48:32;;;;;;;9.50;4.35;;;;;;;;;;5088625;28;20044;-62
2022/01/07 05:50:58;;;;;;;7.80;4.68;;;;;;;;;;5089435;28;20079;-59
2022/01/07 05:53:24;;;;;;;8.82;4.50;;;;;;;;;;5088315;28;20048;-60
2022/01/07 05:55:50;;;;;;;6.90;4.55;;;;;;;;;;5092325;28;20047;-59
2022/01/07 05:58:16;;;;;;;7.43;4.20;;;;;;;;;;5092407;28;20040;-59
2022/01/07 06:00:42;;;;;;;6.93;4.13;;;;;;;;;;5092498;28;20398;-60
2022/01/07 06:03:08;;;;;;;4.35;3.88;;;;;;;;;;5090092;28;20044;-62
2022/01/07 06:05:34;;;;;;;8.98;4.65;;;;;;;;;;5090046;28;20040;-61
2022/01/07 06:08:00;;;;;;;6.18;4.07;;;;;;;;;;5093120;28;20032;-59
2022/01/07 06:10:26;;;;;;;9.32;4.13;;;;;;;;;;5092366;28;20044;-60
2022/01/07 06:12:52;;;;;;;7.82;4.75;;;;;;;;;;5094366;28;20044;-61
2022/01/07 06:15:18;;;;;;;4.55;4.03;;;;;;;;;;5092027;28;20440;-59
2022/01/07 06:17:44;;;;;;;6.32;4.25;;;;;;;;;;5091863;28;20036;-59
2022/01/07 06:20:11;;;;;;;4.93;3.88;;;;;;;;;;5091993;28;20047;-60
2022/01/07 06:22:37;;;;;;;5.07;4.40;;;;;;;;;;5092227;28;20843;-58
2022/01/07 06:25:04;;;;;;;7.13;4.28;;;;;;;;;;5090813;28;20095;-60
2022/01/07 06:27:30;;;;;;;5.68;4.10;;;;;;;;;;5092800;28;20124;-62
2022/01/07 06:29:57;;;;;;;6.43;4.60;;;;;;;;;;5092331;28;20118;-61
2022/01/07 06:32:23;;;;;;;7.10;4.30;;;;;;;;;;5091008;28;20056;-61
2022/01/07 06:34:49;;;;;;;6.75;4.90;;;;;;;;;;5089512;28;20074;-60
2022/01/07 06:37:15;;;;;;;5.75;4.57;;;;;;;;;;5090136;28;20462;-59
2022/01/07 06:39:41;;;;;;;5.75;4.95;;;;;;;;;;5092268;28;20645;-60
2022/01/07 06:42:07;;;;;;;7.85;4.30;;;;;;;;;;5091640;28;20470;-59
2022/01/07 06:44:33;;;;;;;6.60;4.55;;;;;;;;;;5092131;28;20040;-60
2022/01/07 06:47:00;;;;;;;6.60;4.53;;;;;;;;;;5091858;28;20048;-61
2022/01/07 06:49:26;;;;;;;5.53;4.65;;;;;;;;;;5091880;28;20119;-61
2022/01/07 06:51:53;;;;;;;7.18;5.10;;;;;;;;;;5091887;28;20039;-59
2022/01/07 06:54:19;;;;;;;4.85;4.35;;;;;;;;;;5091788;28;20044;-60
2022/01/07 06:56:46;;;;;;;5.82;5.00;;;;;;;;;;5091083;28;20070;-60
2022/01/07 06:59:15;;;;;;;7.28;5.55;;;;;;;;;;5091361;28;20071;-60
2022/01/07 07:01:41;;;;;;;7.82;5.22;;;;;;;;;;5091785;28;20391;-60
2022/01/07 07:04:07;;;;;;;7.35;5.22;;;;;;;;;;5091628;28;20039;-60
2022/01/07 07:06:34;;;;;;;8.93;5.60;;;;;;;;;;5090009;28;20067;-60
2022/01/07 07:09:00;;;;;;;9.18;5.90;;;;;;;;;;5091514;28;20044;-60
2022/01/07 07:11:26;;;;;;;8.82;6.10;;;;;;;;;;5089992;28;20047;-61
2022/01/07 07:13:52;;;;;;;8.25;6.28;;;;;;;;;;5091589;28;20127;-60
2022/01/07 07:16:18;;;;;;;9.00;6.43;;;;;;;;;;5090546;28;20061;-61
2022/01/07 07:18:44;;;;;;;11.65;6.57;;;;;;;;;;5091432;28;20035;-59
2022/01/07 07:21:10;;;;;;;8.15;6.00;;;;;;;;;;5091294;28;20048;-59
2022/01/07 07:23:36;;;;;;;9.27;6.22;;;;;;;;;;5091119;28;20040;-60
2022/01/07 07:26:03;;;;;;;9.00;6.25;;;;;;;;;;5090913;28;20036;-61
2022/01/07 07:28:28;;;;;;;12.13;7.00;;;;;;;;;;5089860;28;20074;-61
2022/01/07 07:30:59;;;;;;;10.88;7.53;;;;;;;;;;5090869;28;20036;-60
2022/01/07 07:38:36;;;;;;;12.15;8.18;;;;;;;;;;5090862;28;20051;-60
2022/01/07 07:41:03;;;;;;;13.27;8.90;;;;;;;;;;5090784;28;20048;-61
2022/01/07 07:43:29;;;;;;;19.65;8.60;;;;;;;;;;5090869;28;20548;-60
2022/01/07 07:45:55;;;;;;;11.65;9.00;;;;;;;;;;5090784;28;20498;-60
2022/01/07 07:48:21;;;;;;;14.43;9.05;;;;;;;;;;5090180;28;20036;-60
2022/01/07 07:50:47;;;;;;;11.43;8.73;;;;;;;;;;5090392;28;20046;-60
2022/01/07 07:53:13;;;;;;;12.55;8.75;;;;;;;;;;5089883;28;20044;-62
2022/01/07 07:55:39;;;;;;;14.55;9.25;;;;;;;;;;5086772;28;20508;-61
2022/01/07 07:58:05;;;;;;;11.68;9.32;;;;;;;;;;5091571;28;20044;-60
2022/01/07 08:00:32;;;;;;;15.55;10.15;;;;;;;;;;5090486;28;20042;-60
2022/01/07 08:02:58;;;;;;;13.77;10.25;;;;;;;;;;5090393;28;20032;-61
2022/01/07 08:05:24;;;;;;;17.10;10.40;;;;;;;;;;5090440;28;20044;-60
2022/01/07 08:07:51;;;;;;;14.38;10.38;;;;;;;;;;5090628;28;20469;-60
2022/01/07 08:10:23;;;;;;;17.40;9.75;;;;;;;;;;5090617;28;20044;-61
2022/01/07 08:18:20;;;;;;;13.88;10.55;;;;;;;;;;5088930;28;20036;-60
2022/01/07 08:20:46;;;;;;;15.52;11.02;;;;;;;;;;5090290;28;20119;-61
2022/01/07 08:23:13;;;;;;;18.98;11.45;;;;;;;;;;5090174;28;20032;-61
2022/01/07 08:25:39;;;;;;;17.38;10.75;;;;;;;;;;5089945;28;20075;-59
2022/01/07 08:28:06;;;;;;;15.88;11.20;;;;;;;;;;5089798;28;20048;-61
2022/01/07 08:30:37;;;;;;;20.35;10.88;;;;;;;;;;5089003;28;20493;-59
2022/01/07 08:35:51;;;;;;;24.33;11.55;;;;;;;;;;5090218;28;20497;-59
2022/01/07 08:38:17;;;;;;;21.63;12.30;;;;;;;;;;5088656;28;20051;-60
2022/01/07 08:40:43;;;;;;;20.83;11.75;;;;;;;;;;5088907;28;20030;-61
2022/01/07 08:43:09;;;;;;;21.90;11.50;;;;;;;;;;5090003;28;20105;-61
2022/01/07 08:45:35;;;;;;;20.65;11.95;;;;;;;;;;5089360;28;20040;-61
2022/01/07 08:48:01;;;;;;;19.73;12.32;;;;;;;;;;5089831;28;20040;-61
2022/01/07 08:50:27;;;;;;;26.63;13.68;;;;;;;;;;5089900;28;20080;-60
2022/01/07 08:52:56;;;;;;;20.52;12.13;;;;;;;;;;5090039;28;20070;-61
2022/01/07 08:55:22;;;;;;;21.58;12.30;;;;;;;;;;5089800;28;20051;-61
2022/01/07 08:57:48;;;;;;;21.60;12.95;;;;;;;;;;5089467;28;20036;-60
2022/01/07 09:00:15;;;;;;;22.10;12.88;;;;;;;;;;5089764;28;20089;-60
2022/01/07 09:02:41;;;;;;;20.38;12.38;;;;;;;;;;5090111;28;20081;-62
2022/01/07 09:05:07;;;;;;;18.60;12.50;;;;;;;;;;5088538;28;20032;-61
2022/01/07 09:07:34;;;;;;;20.60;12.27;;;;;;;;;;5089349;28;20482;-61
2022/01/07 09:10:00;;;;;;;21.27;12.75;;;;;;;;;;5089341;28;20477;-59
2022/01/07 09:12:26;;;;;;;26.35;13.50;;;;;;;;;;5089144;28;20036;-60
2022/01/07 09:14:52;;;;;;;22.92;13.32;;;;;;;;;;5088211;28;20036;-61
2022/01/07 09:17:18;;;;;;;22.00;13.63;;;;;;;;;;5089712;28;20439;-59
2022/01/07 09:19:44;;;;;;;22.08;13.02;;;;;;;;;;5089392;28;20032;-60
2022/01/07 09:22:10;;;;;;;21.92;13.75;;;;;;;;;;5087305;28;20032;-59
2022/01/07 09:24:36;;;;;;;26.45;14.10;;;;;;;;;;5089487;28;20036;-60
2022/01/07 09:27:03;;;;;;;26.45;14.15;;;;;;;;;;5088206;28;20103;-59
2022/01/07 09:29:29;;;;;;;26.38;14.60;;;;;;;;;;5090534;28;20071;-60
2022/01/07 09:31:55;;;;;;;27.58;14.68;;;;;;;;;;5093608;28;20072;-60
2022/01/07 09:34:21;;;;;;;29.52;14.85;;;;;;;;;;5089248;28;20743;-61
2022/01/07 09:36:47;;;;;;;22.83;13.43;;;;;;;;;;5092374;28;20036;-60
2022/01/07 09:39:14;;;;;;;24.40;14.05;;;;;;;;;;5093251;28;20055;-62
2022/01/07 09:41:40;;;;;;;21.83;13.43;;;;;;;;;;5091869;28;20047;-61
2022/01/07 09:44:10;;;;;;;13.77;8.82;;;;;;;;;;5093251;28;20046;-62
2022/01/07 09:46:36;;;;;;;11.13;7.43;;;;;;;;;;5093344;28;20478;-60
2022/01/07 09:49:04;;;;;;;8.20;4.00;;;;;;;;;;5093158;28;20371;-60
2022/01/07 09:51:30;;;;;;;6.82;4.18;;;;;;;;;;5091606;28;20068;-59
2022/01/07 09:53:57;;;;;;;8.15;5.05;;;;;;;;;;5092749;28;20036;-61
2022/01/07 09:56:23;;;;;;;8.02;5.50;;;;;;;;;;5091267;28;20044;-59
2022/01/07 09:58:49;;;;;;;8.93;5.53;;;;;;;;;;5091552;28;20040;-59
2022/01/07 10:01:17;;;;;;;10.30;6.10;;;;;;;;;;5093134;28;20051;-61
2022/01/07 10:03:44;;;;;;;10.73;6.63;;;;;;;;;;5090657;28;20478;-61
2022/01/07 10:06:17;;;;;;;15.88;8.85;;;;;;;;;;5091073;28;20039;-60
2022/01/07 10:08:44;;;;;;;19.65;10.90;;;;;;;;;;5092914;28;20039;-59
2022/01/07 10:11:16;;;;;;;21.08;11.20;;;;;;;;;;5092846;28;20071;-59
2022/01/07 10:13:43;;;;;;;18.13;11.23;;;;;;;;;;5092502;28;20040;-58
2022/01/07 10:16:15;;;;;;;16.10;10.60;;;;;;;;;;5090710;28;20100;-60
2022/01/07 10:18:42;;;;;;;18.55;9.98;;;;;;;;;;5092422;28;20047;-62
2022/01/07 10:21:08;;;;;;;15.35;8.35;;;;;;;;;;5092027;28;20044;-62
2022/01/07 10:23:35;;;;;;;17.98;5.80;;;;;;;;;;5092485;28;20482;-59
2022/01/07 10:26:01;;;;;;;9.80;3.90;;;;;;;;;;5092690;28;20123;-60
2022/01/07 10:28:31;;;;;;;7.00;3.00;;;;;;;;;;5092004;28;20027;-60
2022/01/07 10:31:02;;;;;;;6.18;2.97;;;;;;;;;;5092436;28;20548;-59
2022/01/07 10:33:33;;;;;;;9.50;4.50;;;;;;;;;;5092134;28;20141;-61
2022/01/07 10:36:02;;;;;;;9.45;4.05;;;;;;;;;;5092296;28;20474;-60
2022/01/07 10:38:29;;;;;;;8.85;4.05;;;;;;;;;;5092595;28;20803;-61
2022/01/07 10:40:59;;;;;;;10.10;4.28;;;;;;;;;;5091260;28;20040;-61
2022/01/07 10:43:28;;;;;;;12.85;6.10;;;;;;;;;;5091623;28;20517;-60
2022/01/07 10:45:59;;;;;;;10.88;5.85;;;;;;;;;;5092006;28;20044;-59
2022/01/07 10:48:50;;;;;;;10.40;5.75;;;;;;;;;;5091572;28;20085;-61
2022/01/07 10:51:19;;;;;;;13.05;5.72;;;;;;;;;;5091703;28;20043;-61
2022/01/07 10:53:50;;;;;;;13.60;7.88;;;;;;;;;;5091663;28;20036;-58
2022/01/07 10:56:17;;;;;;;15.02;8.63;;;;;;;;;;5091646;28;20272;-60
2022/01/07 10:58:43;;;;;;;16.23;9.13;;;;;;;;;;5090869;28;20044;-60
2022/01/07 11:01:25;;;;;;;14.43;10.15;;;;;;;;;;5092053;28;20114;-61
2022/01/07 11:03:55;;;;;;;16.05;9.93;;;;;;;;;;5091836;28;20119;-59
2022/01/07 11:06:22;;;;;;;16.02;10.27;;;;;;;;;;5090095;28;20462;-59
2022/01/07 11:08:49;;;;;;;16.67;10.70;;;;;;;;;;5091234;28;20048;-61
2022/01/07 11:11:15;;;;;;;22.15;11.20;;;;;;;;;;5091910;28;20089;-60
2022/01/07 11:13:41;;;;;;;16.20;10.70;;;;;;;;;;5091788;28;20040;-59
2022/01/07 11:16:07;;;;;;;19.95;11.27;;;;;;;;;;5089808;28;20151;-60
2022/01/07 11:18:36;;;;;;;23.80;11.73;;;;;;;;;;5091127;28;20122;-59
2022/01/07 11:21:03;;;;;;;18.45;9.60;;;;;;;;;;5091548;28;20448;-59
2022/01/07 11:23:29;;;;;;;10.68;7.35;;;;;;;;;;5091717;28;20036;-60
2022/01/07 11:25:59;;;;;;;9.10;5.03;;;;;;;;;;5090383;28;20027;-60
2022/01/07 11:28:25;;;;;;;7.45;4.18;;;;;;;;;;5091216;28;20058;-61
2022/01/07 11:30:51;;;;;;;6.72;3.40;;;;;;;;;;5091610;28;20440;-59
2022/01/07 11:33:22;;;;;;;7.38;2.22;;;;;;;;;;5091342;28;20490;-59
2022/01/07 11:35:49;;;;;;;5.25;2.00;;;;;;;;;;5090952;28;20051;-59
2022/01/07 11:38:17;;;;;;;3.78;1.75;;;;;;;;;;5090782;28;20039;-60
2022/01/07 11:40:44;;;;;;;3.58;1.17;;;;;;;;;;5090963;28;20131;-59
2022/01/07 11:43:19;;;;;;;5.03;1.00;;;;;;;;;;5089926;28;20497;-60
2022/01/07 11:45:46;;;;;;;2.63;0.93;;;;;;;;;;5091196;28;20043;-59
2022/01/07 11:48:15;;;;;;;3.92;0.95;;;;;;;;;;5090228;28;20410;-59
2022/01/07 11:50:48;;;;;;;5.25;1.08;;;;;;;;;;5089399;28;20052;-58
2022/01/07 11:53:14;;;;;;;4.30;1.02;;;;;;;;;;5090685;28;20040;-60
2022/01/07 11:55:41;;;;;;;7.57;1.00;;;;;;;;;;5091142;28;20071;-60
2022/01/07 11:58:08;;;;;;;7.53;1.25;;;;;;;;;;5090170;28;20040;-61
2022/01/07 12:00:53;;;;;;;4.30;0.95;;;;;;;;;;5090825;28;20031;-60
2022/01/07 12:03:31;;;;;;;5.63;0.90;;;;;;;;;;5090474;28;20044;-59
2022/01/07 12:05:57;;;;;;;7.35;1.10;;;;;;;;;;5090967;28;20036;-59
2022/01/07 12:08:40;;;;;;;2.33;0.70;;;;;;;;;;5088905;28;20036;-58
2022/01/07 12:11:10;;;;;;;6.22;0.88;;;;;;;;;;5087413;28;20036;-60
2022/01/07 12:13:40;;;;;;;5.63;1.30;;;;;;;;;;5090366;28;20336;-60
2022/01/07 12:16:09;;;;;;;5.03;0.75;;;;;;;;;;5090325;28;20039;-59
2022/01/07 12:18:35;;;;;;;2.55;0.75;;;;;;;;;;5090258;28;20086;-60
2022/01/07 12:21:02;;;;;;;8.07;1.40;;;;;;;;;;5090450;28;20040;-59
2022/01/07 12:23:28;;;;;;;4.95;1.13;;;;;;;;;;5090177;28;20781;-59
2022/01/07 12:25:55;;;;;;;5.50;0.80;;;;;;;;;;5089428;28;20036;-60
2022/01/07 12:28:21;;;;;;;4.05;0.80;;;;;;;;;;5090549;28;20044;-59
2022/01/07 12:30:49;;;;;;;2.72;1.05;;;;;;;;;;5090101;28;20047;-59
2022/01/07 12:33:15;;;;;;;4.85;1.30;;;;;;;;;;5088864;28;20520;-60
2022/01/07 12:35:42;;;;;;;5.07;1.20;;;;;;;;;;5089871;28;20043;-59
2022/01/07 12:38:12;;;;;;;7.00;1.27;;;;;;;;;;5089647;28;20080;-61
2022/01/07 12:40:38;;;;;;;5.32;1.10;;;;;;;;;;5088414;28;20036;-59
2022/01/07 12:43:04;;;;;;;8.57;1.92;;;;;;;;;;5089345;28;20040;-59
2022/01/07 12:45:31;;;;;;;4.30;1.48;;;;;;;;;;5088558;28;20035;-60
2022/01/07 12:47:57;;;;;;;4.45;1.73;;;;;;;;;;5088919;28;20040;-61
2022/01/07 12:50:24;;;;;;;4.93;1.58;;;;;;;;;;5088821;28;20134;-60
2022/01/07 12:52:51;;;;;;;5.00;2.30;;;;;;;;;;5088493;28;20551;-59
2022/01/07 12:55:27;;;;;;;6.05;1.83;;;;;;;;;;5089104;28;20075;-60
2022/01/07 12:57:59;;;;;;;7.07;2.40;;;;;;;;;;5089679;28;20194;-59
2022/01/07 13:00:26;;;;;;;7.18;2.55;;;;;;;;;;5088008;28;20110;-58
2022/01/07 13:02:55;;;;;;;5.93;2.22;;;;;;;;;;5089105;28;20040;-61
2022/01/07 13:05:36;;;;;;;8.20;3.45;;;;;;;;;;5088803;28;20502;-60
2022/01/07 13:08:08;;;;;;;7.95;3.00;;;;;;;;;;5088056;28;20044;-60
2022/01/07 13:10:36;;;;;;;6.50;3.20;;;;;;;;;;5089319;28;20448;-59
2022/01/07 13:13:04;;;;;;;9.95;4.03;;;;;;;;;;5087856;28;20111;-60
2022/01/07 13:15:40;;;;;;;6.70;3.10;;;;;;;;;;5087924;28;20076;-60
2022/01/07 13:18:14;;;;;;;10.18;3.67;;;;;;;;;;5088222;28;20090;-59
2022/01/07 13:20:40;;;;;;;12.00;3.53;;;;;;;;;;5086909;28;20040;-60
2022/01/07 13:23:07;;;;;;;8.82;3.95;;;;;;;;;;5087268;28;20173;-60
2022/01/07 13:25:33;;;;;;;8.68;4.03;;;;;;;;;;5089139;28;20028;-59
2022/01/07 13:28:00;;;;;;;9.43;3.80;;;;;;;;;;5088652;28;20086;-58
2022/01/07 13:30:39;;;;;;;8.77;3.50;;;;;;;;;;5086473;28;20389;-60
2022/01/07 13:33:06;;;;;;;11.73;3.45;;;;;;;;;;5087011;28;20062;-59
2022/01/07 13:35:32;;;;;;;10.38;3.60;;;;;;;;;;5089227;28;20051;-59
2022/01/07 13:37:58;;;;;;;11.35;4.90;;;;;;;;;;5089141;28;20098;-60
2022/01/07 13:40:29;;;;;;;8.77;4.00;;;;;;;;;;5087454;28;20036;-60
2022/01/07 13:43:06;;;;;;;10.70;4.07;;;;;;;;;;5087846;28;20040;-57
2022/01/07 13:45:32;;;;;;;10.68;4.65;;;;;;;;;;5088491;28;20040;-59
2022/01/07 13:48:04;;;;;;;11.52;3.92;;;;;;;;;;5089312;28;20119;-58
2022/01/07 13:50:31;;;;;;;10.77;4.05;;;;;;;;;;5089267;28;20060;-58
2022/01/07 13:52:57;;;;;;;16.15;3.60;;;;;;;;;;5089392;28;20047;-59
2022/01/07 13:55:28;;;;;;;9.30;4.07;;;;;;;;;;5088074;28;20505;-59
2022/01/07 13:58:04;;;;;;;14.57;4.40;;;;;;;;;;5089450;28;20036;-59
2022/01/07 14:00:30;;;;;;;10.95;3.60;;;;;;;;;;5088676;28;20040;-57
2022/01/07 14:02:56;;;;;;;14.90;4.20;;;;;;;;;;5084119;28;20075;-59
2022/01/07 14:05:22;;;;;;;17.00;4.57;;;;;;;;;;5088440;28;20043;-59
2022/01/07 14:07:56;;;;;;;12.40;3.65;;;;;;;;;;5088463;28;20124;-58
2022/01/07 14:10:31;;;;;;;9.90;4.07;;;;;;;;;;5090506;28;20456;-59
2022/01/07 14:13:24;;;;;;;10.52;4.00;;;;;;;;;;5088856;28;20116;-59
2022/01/07 14:15:52;;;;;;;;;;;5.20;99.90;;;;;;5088032;28;20047;-59
2022/01/07 14:18:22;;;;;;;9.90;3.50;;;;;;;;;;5107803;28;19931;-60
2022/01/07 14:20:55;;;;;;;12.77;4.63;;;;;;;;;;5092356;28;20040;-59
2022/01/07 14:23:20;;;;;;;9.68;4.03;;;;;;;;;;5092396;28;20107;-57
2022/01/07 14:25:47;;;;;;;9.57;3.50;;;;;;;;;;5092783;28;20122;-59
2022/01/07 14:28:14;;;;;;;14.05;4.38;;;;;;;;;;5090575;28;20044;-60
2022/01/07 14:30:41;;;;;;;11.65;3.85;;;;;;;;;;5092126;28;20046;-60
2022/01/07 14:33:07;;;;;;;15.10;4.00;;;;;;;;;;5091130;28;20051;-59
2022/01/07 14:35:33;;;;;;;9.70;3.38;;;;;;;;;;5090443;28;20047;-60
2022/01/07 14:37:59;;;;;;;12.15;3.47;;;;;;;;;;5092161;28;20400;-59
2022/01/07 14:40:25;;;;;;;15.60;3.60;;;;;;;;;;5092217;28;20394;-60
2022/01/07 14:42:51;;;;;;;15.57;3.80;;;;;;;;;;5091156;28;20036;-60
2022/01/07 14:45:18;;;;;;;13.23;3.38;;;;;;;;;;5092069;28;20043;-59
2022/01/07 14:47:44;;;;;;;15.88;3.10;;;;;;;;;;5091252;28;20048;-59